Byron, Oklahoma
Current Conditions -  °F | °C
As of 11:35 AM on Monday 22 Dec 2014 (Local Time) from KAVK Reporting Station
Clear Clear  
Wind Chill: 52°   Ceiling: Unl
Heat Index: 52°   Visibility: 10mi
Dew Point: 39°   Wind: 17mph
Humidity: 62%   Direction: 340°NNW
Pressure: 29.64"   Gusts: 25mph
Location:  36.916°N, 98.4369°W
Report Text: KAVK 221735Z AUTO 34015G22KT 10SM CLR 11/04 A2964 RMK AO2
Loading
Personal Weather Stations






























Interactive Weather Map New forecast layout! Learn more

10-Day Weather Forecast

Advertisements
Track Severe Weather on mobile